Time;durP1;ratioP1;P1;durP2;ratioP2;P2;SDS_P1;SDS_P2;PMS_P1;PMS_P2;Temp;Humidity;BMP_temperature;BMP_pressure;BME280_temperature;BME280_humidity;BME280_pressure;Samples;Min_cycle;Max_cycle;Signal;HPM_P1;HPM_P2
2023/08/24 00:01:03;;;;;;;;;;;19.20;81.20;;;;;;5016900;28;19898;-86
2023/08/24 00:03:28;;;;;;;;;;;19.10;81.30;;;;;;5019767;28;19997;-86
2023/08/24 00:05:54;;;;;;;;;;;19.10;81.20;;;;;;5020595;28;19941;-88
2023/08/24 00:08:19;;;;;;;;;;;19.00;81.60;;;;;;5019210;28;19926;-90
2023/08/24 00:10:48;;;;;;;;;;;19.10;81.10;;;;;;5015573;28;19952;-89
2023/08/24 00:13:13;;;;;;;;;;;19.00;81.50;;;;;;5017434;28;19949;-89
2023/08/24 00:15:39;;;;;;;;;;;19.00;81.40;;;;;;5015810;28;20228;-88
2023/08/24 00:18:05;;;;;;;;;;;18.90;82.00;;;;;;5014961;28;19912;-86
2023/08/24 00:20:32;;;;;;;;;;;18.80;82.30;;;;;;5002797;28;19925;-86
2023/08/24 00:22:58;;;;;;;;;;;18.80;82.30;;;;;;5001005;28;19909;-88
2023/08/24 00:25:24;;;;;;;;;;;18.70;82.50;;;;;;4997678;28;19969;-86
2023/08/24 00:27:49;;;;;;;;;;;18.80;82.60;;;;;;4996346;28;20206;-87
2023/08/24 00:30:15;;;;;;;;;;;18.90;81.80;;;;;;5009537;28;19952;-85
2023/08/24 00:32:40;;;;;;;;;;;18.80;82.00;;;;;;4998081;28;19914;-85
2023/08/24 00:35:06;;;;;;;;;;;18.80;82.20;;;;;;4995452;28;19914;-86
2023/08/24 00:37:32;;;;;;;;;;;18.80;82.00;;;;;;4997359;28;19914;-85
2023/08/24 00:40:04;;;;;;;;;;;18.80;82.20;;;;;;4995856;28;19997;-87
2023/08/24 00:42:29;;;;;;;;;;;18.70;82.20;;;;;;4990529;28;19914;-85
2023/08/24 00:44:55;;;;;;;;;;;18.80;81.50;;;;;;5000439;28;19916;-85
2023/08/24 00:47:21;;;;;;;;;;;18.80;81.10;;;;;;4998719;28;20090;-86
2023/08/24 00:49:47;;;;;;;;;;;18.80;81.40;;;;;;5012434;28;20293;-86
2023/08/24 00:52:12;;;;;;;;;;;18.70;81.70;;;;;;4991792;28;20060;-88
2023/08/24 00:54:39;;;;;;;;;;;18.60;82.50;;;;;;4992996;28;19949;-85
2023/08/24 00:57:04;;;;;;;;;;;18.60;82.80;;;;;;5006732;28;19910;-87
2023/08/24 00:59:30;;;;;;;;;;;18.50;83.10;;;;;;4990420;28;19933;-87
2023/08/24 01:01:56;;;;;;;;;;;18.50;83.20;;;;;;4993111;28;19924;-87
2023/08/24 01:04:22;;;;;;;;;;;18.50;83.40;;;;;;4996019;28;19914;-86
2023/08/24 01:06:48;;;;;;;;;;;18.50;83.30;;;;;;4996316;28;19989;-86
2023/08/24 01:09:13;;;;;;;;;;;18.40;83.10;;;;;;5011556;28;19933;-85
2023/08/24 01:11:53;;;;;;;;;;;18.40;83.40;;;;;;4993540;28;19913;-87
2023/08/24 01:14:28;;;;;;;;;;;18.50;83.10;;;;;;5009744;28;19914;-87
2023/08/24 01:16:55;;;;;;;;;;;18.40;83.20;;;;;;4994681;28;19917;-87
2023/08/24 01:19:53;;;;;;;;;;;18.40;83.20;;;;;;4997980;28;19914;-87
2023/08/24 01:22:44;;;;;;;;;;;18.40;83.50;;;;;;4973126;28;19957;-87
2023/08/24 01:25:09;;;;;;;;;;;18.50;83.50;;;;;;4998720;28;19918;-87
2023/08/24 01:27:36;;;;;;;;;;;18.50;83.20;;;;;;4997449;28;19972;-88
2023/08/24 01:30:05;;;;;;;;;;;18.40;83.40;;;;;;4991380;28;19914;-87
2023/08/24 01:32:31;;;;;;;;;;;18.30;83.60;;;;;;4998468;28;20392;-87
2023/08/24 01:34:57;;;;;;;;;;;18.30;83.90;;;;;;4996045;28;19925;-88
2023/08/24 01:37:22;;;;;;;;;;;18.40;84.10;;;;;;4995275;28;19937;-87
2023/08/24 01:40:01;;;;;;;;;;;18.40;83.80;;;;;;5015240;28;20366;-87
2023/08/24 01:42:30;;;;;;;;;;;18.40;83.20;;;;;;4991359;28;19914;-87
2023/08/24 01:44:58;;;;;;;;;;;18.50;83.20;;;;;;4995653;28;19924;-86
2023/08/24 01:47:25;;;;;;;;;;;18.30;83.40;;;;;;4993057;28;19918;-89
2023/08/24 01:49:50;;;;;;;;;;;18.30;83.40;;;;;;4994579;28;20297;-86
2023/08/24 01:52:17;;;;;;;;;;;18.50;82.80;;;;;;4993254;28;20012;-86
2023/08/24 01:54:43;;;;;;;;;;;18.50;82.20;;;;;;4994125;28;19920;-87
2023/08/24 01:57:08;;;;;;;;;;;18.40;82.50;;;;;;4988515;28;20440;-86
2023/08/24 01:59:34;;;;;;;;;;;18.30;83.00;;;;;;4993297;28;19918;-87
2023/08/24 02:01:59;;;;;;;;;;;18.30;82.60;;;;;;4995936;28;19956;-87
2023/08/24 02:04:25;;;;;;;;;;;18.20;83.00;;;;;;4995269;28;19956;-86
2023/08/24 02:06:50;;;;;;;;;;;18.20;83.30;;;;;;4995618;28;19957;-85
2023/08/24 02:09:15;;;;;;;;;;;18.10;82.70;;;;;;4994187;28;19910;-88
2023/08/24 02:11:41;;;;;;;;;;;18.10;82.80;;;;;;4990653;28;19920;-85
2023/08/24 02:14:07;;;;;;;;;;;18.10;82.70;;;;;;4995410;28;19914;-87
2023/08/24 02:16:33;;;;;;;;;;;18.10;83.00;;;;;;4991155;28;19922;-87
2023/08/24 02:18:58;;;;;;;;;;;18.10;83.10;;;;;;4994086;28;19914;-87
2023/08/24 02:21:23;;;;;;;;;;;18.10;82.80;;;;;;4988007;28;19914;-86
2023/08/24 02:23:49;;;;;;;;;;;18.10;83.30;;;;;;5011630;23;19926;-91
2023/08/24 02:26:14;;;;;;;;;;;18.00;83.30;;;;;;4984217;28;19918;-91
2023/08/24 02:28:40;;;;;;;;;;;17.90;83.70;;;;;;4988335;28;20004;-91
2023/08/24 02:31:05;;;;;;;;;;;18.00;83.70;;;;;;4993975;28;20292;-90
2023/08/24 02:33:31;;;;;;;;;;;17.90;83.90;;;;;;4994819;28;20364;-90
2023/08/24 02:35:57;;;;;;;;;;;18.00;84.20;;;;;;4996856;28;20368;-91
2023/08/24 02:38:25;;;;;;;;;;;17.90;84.30;;;;;;4995879;28;19913;-90
2023/08/24 02:41:01;;;;;;;;;;;17.90;84.60;;;;;;4995742;28;19914;-91
2023/08/24 02:43:27;;;;;;;;;;;17.80;84.80;;;;;;4994093;28;19914;-91
2023/08/24 02:45:53;;;;;;;;;;;17.80;84.60;;;;;;4995072;28;19920;-91
2023/08/24 02:48:21;;;;;;;;;;;17.90;84.50;;;;;;4989560;28;19918;-92
2023/08/24 02:50:47;;;;;;;;;;;18.00;83.70;;;;;;4996431;28;19916;-91
2023/08/24 02:53:12;;;;;;;;;;;18.00;83.20;;;;;;4996646;28;19917;-91
2023/08/24 02:55:38;;;;;;;;;;;17.80;83.20;;;;;;4996082;28;19917;-90
2023/08/24 02:58:03;;;;;;;;;;;17.90;83.10;;;;;;4995866;28;20335;-91
2023/08/24 03:00:29;;;;;;;;;;;17.80;83.70;;;;;;4991275;28;19973;-90
2023/08/24 03:02:54;;;;;;;;;;;17.90;83.40;;;;;;4993923;28;20360;-90
2023/08/24 03:05:20;;;;;;;;;;;18.00;83.00;;;;;;4995330;28;19953;-90
2023/08/24 03:07:45;;;;;;;;;;;17.80;83.20;;;;;;4995427;28;19914;-90
2023/08/24 03:10:11;;;;;;;;;;;17.80;83.70;;;;;;4995093;28;19914;-91
2023/08/24 03:12:36;;;;;;;;;;;17.80;83.70;;;;;;4985413;28;19913;-91
2023/08/24 03:15:02;;;;;;;;;;;18.00;83.80;;;;;;4995365;28;19924;-90
2023/08/24 03:17:27;;;;;;;;;;;18.00;84.20;;;;;;4995150;28;19910;-91
2023/08/24 03:19:53;;;;;;;;;;;18.00;83.80;;;;;;4994194;28;19910;-91
2023/08/24 03:22:18;;;;;;;;;;;18.00;83.50;;;;;;4994980;28;19921;-91
2023/08/24 03:24:44;;;;;;;;;;;18.00;84.00;;;;;;4995052;28;19967;-91
2023/08/24 03:27:09;;;;;;;;;;;18.10;83.80;;;;;;4994487;28;20284;-91
2023/08/24 03:29:35;;;;;;;;;;;18.10;83.50;;;;;;4987037;28;19960;-90
2023/08/24 03:32:00;;;;;;;;;;;18.10;83.40;;;;;;4995553;28;19920;-90
2023/08/24 03:34:27;;;;;;;;;;;18.00;83.40;;;;;;4995306;28;19910;-91
2023/08/24 03:36:52;;;;;;;;;;;18.00;83.70;;;;;;4991282;28;19913;-90
2023/08/24 03:39:18;;;;;;;;;;;18.00;83.70;;;;;;4992794;28;19968;-91
2023/08/24 03:41:43;;;;;;;;;;;18.10;83.40;;;;;;4993474;28;19910;-91
2023/08/24 03:44:08;;;;;;;;;;;18.10;83.20;;;;;;4993447;28;19941;-91
2023/08/24 03:46:34;;;;;;;;;;;18.10;83.30;;;;;;4993418;28;19918;-91
2023/08/24 03:48:59;;;;;;;;;;;18.10;83.00;;;;;;4995672;28;19913;-91
2023/08/24 03:51:28;;;;;;;;;;;18.20;83.00;;;;;;4995342;28;19919;-91
2023/08/24 03:53:53;;;;;;;;;;;18.20;83.30;;;;;;4994968;28;20009;-90
2023/08/24 03:56:19;;;;;;;;;;;18.10;83.40;;;;;;4990694;28;19969;-91
2023/08/24 03:58:44;;;;;;;;;;;18.10;83.40;;;;;;4991689;28;19918;-91
2023/08/24 04:01:10;;;;;;;;;;;18.10;83.80;;;;;;4994711;28;20358;-91
2023/08/24 04:03:36;;;;;;;;;;;18.10;84.50;;;;;;4994987;28;20311;-91
2023/08/24 04:06:01;;;;;;;;;;;18.10;84.50;;;;;;4992960;28;19917;-91
2023/08/24 04:08:27;;;;;;;;;;;18.10;84.60;;;;;;4993941;28;19921;-91
2023/08/24 04:10:52;;;;;;;;;;;18.10;84.70;;;;;;4994606;28;19920;-90
2023/08/24 04:13:18;;;;;;;;;;;18.10;84.60;;;;;;4990527;28;20009;-91
2023/08/24 04:15:43;;;;;;;;;;;18.20;84.20;;;;;;4991001;28;19914;-91
2023/08/24 04:18:09;;;;;;;;;;;18.30;83.90;;;;;;4993892;28;20430;-91
2023/08/24 04:20:34;;;;;;;;;;;18.30;83.90;;;;;;4994403;28;19948;-90
2023/08/24 04:22:59;;;;;;;;;;;18.30;83.80;;;;;;4993174;28;20278;-90
2023/08/24 04:25:25;;;;;;;;;;;18.30;83.70;;;;;;4993488;28;19980;-91
2023/08/24 04:27:50;;;;;;;;;;;18.20;83.40;;;;;;4992972;28;19937;-91
2023/08/24 04:30:16;;;;;;;;;;;18.10;83.60;;;;;;4985871;28;19921;-91
2023/08/24 04:32:41;;;;;;;;;;;18.10;84.10;;;;;;4994080;28;19913;-91
2023/08/24 04:35:10;;;;;;;;;;;18.10;84.70;;;;;;4993748;28;19969;-91
2023/08/24 04:37:43;;;;;;;;;;;18.10;84.40;;;;;;4987639;28;20005;-91
2023/08/24 04:40:09;;;;;;;;;;;18.10;84.40;;;;;;4994439;28;19918;-90
2023/08/24 04:42:34;;;;;;;;;;;18.00;84.60;;;;;;4993328;28;19921;-91
2023/08/24 04:45:00;;;;;;;;;;;18.10;84.70;;;;;;4988860;28;19940;-91
2023/08/24 04:47:29;;;;;;;;;;;18.10;85.50;;;;;;4991702;28;19914;-91
2023/08/24 04:49:54;;;;;;;;;;;18.20;85.70;;;;;;4994032;28;20128;-91
2023/08/24 04:52:20;;;;;;;;;;;18.30;85.30;;;;;;4993680;28;19984;-91
2023/08/24 04:54:45;;;;;;;;;;;18.10;85.20;;;;;;4981908;28;19961;-91
2023/08/24 04:57:11;;;;;;;;;;;18.10;85.20;;;;;;4992806;28;19913;-90
2023/08/24 04:59:36;;;;;;;;;;;18.10;85.20;;;;;;4991591;28;19965;-90
2023/08/24 05:02:02;;;;;;;;;;;18.10;85.50;;;;;;4994913;28;19968;-91
2023/08/24 05:04:27;;;;;;;;;;;18.00;86.10;;;;;;4989912;28;19914;-88
2023/08/24 05:06:53;;;;;;;;;;;18.10;86.10;;;;;;4991967;28;19918;-90
2023/08/24 05:09:18;;;;;;;;;;;18.10;86.70;;;;;;4992652;28;20016;-91
2023/08/24 05:11:46;;;;;;;;;;;18.20;86.10;;;;;;4990285;28;19942;-92
2023/08/24 05:14:13;;;;;;;;;;;18.10;85.90;;;;;;4994338;28;19917;-92
2023/08/24 05:16:41;;;;;;;;;;;18.00;86.00;;;;;;4987614;28;20339;-90
2023/08/24 05:19:07;;;;;;;;;;;18.10;86.90;;;;;;4994140;28;19910;-90
2023/08/24 05:21:32;;;;;;;;;;;18.10;87.40;;;;;;4991458;28;19925;-91
2023/08/24 05:23:58;;;;;;;;;;;18.10;86.90;;;;;;4992073;28;19996;-91
2023/08/24 05:26:24;;;;;;;;;;;18.30;86.30;;;;;;4988263;28;20295;-90
2023/08/24 05:28:50;;;;;;;;;;;18.30;86.20;;;;;;4992596;28;19934;-92
2023/08/24 05:31:21;;;;;;;;;;;18.20;86.40;;;;;;4992766;28;19914;-92
2023/08/24 05:33:47;;;;;;;;;;;18.30;86.80;;;;;;4989541;28;19922;-90
2023/08/24 05:36:13;;;;;;;;;;;18.30;87.00;;;;;;4990076;28;19947;-91
2023/08/24 05:38:38;;;;;;;;;;;18.40;86.70;;;;;;4990140;28;19921;-88
2023/08/24 05:41:08;;;;;;;;;;;18.30;87.10;;;;;;4984332;28;20874;-91
2023/08/24 05:43:34;;;;;;;;;;;18.30;87.30;;;;;;4985271;28;19944;-91
2023/08/24 05:46:00;;;;;;;;;;;18.40;87.20;;;;;;4985839;28;20288;-88
2023/08/24 05:48:29;;;;;;;;;;;18.40;87.10;;;;;;4988776;28;19921;-92
2023/08/24 05:50:54;;;;;;;;;;;18.50;87.20;;;;;;4990395;28;19952;-90
2023/08/24 05:53:20;;;;;;;;;;;18.50;87.20;;;;;;5000851;28;19913;-90
2023/08/24 05:55:45;;;;;;;;;;;18.60;87.10;;;;;;4991452;28;19914;-90
2023/08/24 05:58:13;;;;;;;;;;;18.60;86.50;;;;;;4988307;28;20004;-92
2023/08/24 06:00:38;;;;;;;;;;;18.60;86.90;;;;;;4989453;28;19968;-87
2023/08/24 06:05:30;;;;;;;;;;;18.60;86.80;;;;;;5009146;23;20377;-82
2023/08/24 06:07:55;;;;;;;;;;;18.60;86.50;;;;;;5003467;28;19972;-81
2023/08/24 06:10:21;;;;;;;;;;;18.60;86.50;;;;;;4996172;28;19956;-81
2023/08/24 06:12:47;;;;;;;;;;;18.60;86.70;;;;;;4987763;28;19922;-81
2023/08/24 06:15:13;;;;;;;;;;;18.70;86.20;;;;;;4975032;28;19922;-80
2023/08/24 06:17:38;;;;;;;;;;;18.70;86.50;;;;;;4971420;28;19976;-80
2023/08/24 06:20:04;;;;;;;;;;;18.80;86.50;;;;;;4973866;28;20005;-81
2023/08/24 06:22:30;;;;;;;;;;;18.80;86.80;;;;;;4983997;28;19978;-82
2023/08/24 06:24:59;;;;;;;;;;;18.80;86.80;;;;;;4988450;28;20542;-83
2023/08/24 06:27:25;;;;;;;;;;;18.80;86.90;;;;;;4990723;28;20349;-81
2023/08/24 06:29:50;;;;;;;;;;;18.90;86.30;;;;;;4987089;28;19914;-82
2023/08/24 06:32:16;;;;;;;;;;;18.90;85.50;;;;;;4986941;28;19961;-82
2023/08/24 06:34:42;;;;;;;;;;;18.90;85.40;;;;;;4987412;28;19921;-82
2023/08/24 06:37:07;;;;;;;;;;;19.00;84.30;;;;;;4982549;28;20392;-81
2023/08/24 06:39:33;;;;;;;;;;;19.20;83.40;;;;;;4988015;28;19921;-82
2023/08/24 06:41:58;;;;;;;;;;;19.20;83.70;;;;;;5004959;28;19916;-81
2023/08/24 06:44:24;;;;;;;;;;;19.00;84.00;;;;;;4989872;28;19980;-82
2023/08/24 06:46:49;;;;;;;;;;;19.00;83.40;;;;;;4987876;28;19914;-81
2023/08/24 06:49:15;;;;;;;;;;;19.10;82.90;;;;;;4986665;28;19914;-82
2023/08/24 06:51:41;;;;;;;;;;;19.00;83.50;;;;;;4989283;28;19916;-82
2023/08/24 06:54:06;;;;;;;;;;;19.20;82.40;;;;;;4984517;28;19917;-82
2023/08/24 06:56:31;;;;;;;;;;;19.40;81.90;;;;;;4990002;28;20340;-81
2023/08/24 06:58:57;;;;;;;;;;;19.30;82.40;;;;;;4985464;28;19914;-81
2023/08/24 07:01:23;;;;;;;;;;;19.20;83.40;;;;;;4990956;28;20333;-82
2023/08/24 07:03:49;;;;;;;;;;;19.10;83.40;;;;;;4990216;28;19976;-82
2023/08/24 07:06:14;;;;;;;;;;;19.10;83.80;;;;;;4989501;28;20492;-82
2023/08/24 07:08:39;;;;;;;;;;;19.10;83.70;;;;;;4985081;28;20364;-82
2023/08/24 07:11:08;;;;;;;;;;;19.40;83.10;;;;;;4981220;28;19972;-81
2023/08/24 07:13:34;;;;;;;;;;;19.30;83.50;;;;;;5005503;28;19913;-82
2023/08/24 07:16:00;;;;;;;;;;;19.30;84.00;;;;;;4990904;28;19921;-81
2023/08/24 07:18:25;;;;;;;;;;;19.40;84.00;;;;;;4991469;28;19918;-82
2023/08/24 07:20:51;;;;;;;;;;;19.40;84.30;;;;;;4995547;28;19972;-82
2023/08/24 07:23:16;;;;;;;;;;;19.50;84.10;;;;;;4992684;28;20016;-81
2023/08/24 07:25:41;;;;;;;;;;;19.60;82.70;;;;;;4995191;28;19917;-81
2023/08/24 07:28:08;;;;;;;;;;;19.70;82.30;;;;;;4991219;28;19918;-82
2023/08/24 07:30:35;;;;;;;;;;;19.80;81.20;;;;;;4991868;28;20289;-82
2023/08/24 07:33:02;;;;;;;;;;;19.90;81.70;;;;;;4988135;28;19914;-82
2023/08/24 07:35:28;;;;;;;;;;;20.10;82.00;;;;;;4992465;28;20298;-82
2023/08/24 07:37:53;;;;;;;;;;;20.10;81.70;;;;;;4984020;28;19929;-81
2023/08/24 07:40:19;;;;;;;;;;;20.10;81.50;;;;;;4986553;28;19918;-82
2023/08/24 07:42:45;;;;;;;;;;;20.20;79.90;;;;;;4991385;28;20040;-82
2023/08/24 07:45:11;;;;;;;;;;;20.30;79.30;;;;;;5007151;28;19914;-83
2023/08/24 07:47:37;;;;;;;;;;;20.40;78.80;;;;;;4988172;28;19926;-82
2023/08/24 07:50:02;;;;;;;;;;;20.40;77.90;;;;;;4996106;28;20401;-82
2023/08/24 07:52:28;;;;;;;;;;;20.50;77.70;;;;;;4986916;28;19964;-82
2023/08/24 07:54:55;;;;;;;;;;;20.60;77.40;;;;;;4989935;28;20378;-82
2023/08/24 07:57:20;;;;;;;;;;;20.60;77.50;;;;;;4991280;28;19925;-82
2023/08/24 07:59:46;;;;;;;;;;;20.70;77.50;;;;;;4992854;28;19913;-80
2023/08/24 08:02:12;;;;;;;;;;;20.80;77.60;;;;;;4995204;28;19929;-82
2023/08/24 08:04:37;;;;;;;;;;;21.00;78.00;;;;;;5009142;28;19979;-80
2023/08/24 08:07:03;;;;;;;;;;;21.10;77.00;;;;;;4989425;28;20386;-80
2023/08/24 08:09:28;;;;;;;;;;;21.10;77.40;;;;;;4990395;28;20361;-82
2023/08/24 08:11:54;;;;;;;;;;;21.40;77.20;;;;;;4993165;28;19914;-80
2023/08/24 08:14:20;;;;;;;;;;;21.50;78.20;;;;;;5005377;28;19925;-83
2023/08/24 08:16:45;;;;;;;;;;;21.50;76.50;;;;;;4984725;28;19925;-82
2023/08/24 08:19:11;;;;;;;;;;;21.60;76.00;;;;;;4989993;28;19913;-82
2023/08/24 08:21:36;;;;;;;;;;;21.60;75.20;;;;;;4993902;28;19992;-82
2023/08/24 08:24:02;;;;;;;;;;;21.80;73.80;;;;;;5004461;23;19934;-85
2023/08/24 08:26:27;;;;;;;;;;;21.90;73.90;;;;;;4987701;28;19918;-84
2023/08/24 08:28:52;;;;;;;;;;;21.90;74.30;;;;;;4989715;28;19957;-84
2023/08/24 08:31:18;;;;;;;;;;;21.80;75.60;;;;;;4988303;28;20380;-84
2023/08/24 08:33:43;;;;;;;;;;;21.90;76.10;;;;;;4993215;28;20390;-86
2023/08/24 08:36:09;;;;;;;;;;;22.20;74.00;;;;;;4991031;28;19917;-86
2023/08/24 08:38:34;;;;;;;;;;;22.20;73.50;;;;;;4994110;28;19986;-86
2023/08/24 08:41:03;;;;;;;;;;;22.10;73.50;;;;;;4994074;28;20426;-86
2023/08/24 08:43:30;;;;;;;;;;;22.30;72.00;;;;;;4993243;28;20092;-88
2023/08/24 08:45:56;;;;;;;;;;;22.30;73.50;;;;;;4988007;28;19917;-86
2023/08/24 08:48:22;;;;;;;;;;;22.30;72.70;;;;;;4987799;28;19921;-87
2023/08/24 08:50:51;;;;;;;;;;;22.40;71.70;;;;;;4990450;28;19964;-88
2023/08/24 08:53:17;;;;;;;;;;;22.40;72.00;;;;;;5006997;28;19910;-85
2023/08/24 08:55:43;;;;;;;;;;;22.60;73.10;;;;;;5002813;28;19929;-86
2023/08/24 08:58:09;;;;;;;;;;;22.60;72.00;;;;;;4993042;28;20112;-84
2023/08/24 09:00:35;;;;;;;;;;;22.60;71.30;;;;;;4994247;28;20295;-87
2023/08/24 09:03:01;;;;;;;;;;;22.70;71.20;;;;;;4996015;28;19961;-84
2023/08/24 09:05:26;;;;;;;;;;;22.90;71.50;;;;;;4987895;28;19988;-83
2023/08/24 09:07:53;;;;;;;;;;;23.00;69.90;;;;;;4991580;28;20367;-83
2023/08/24 09:10:19;;;;;;;;;;;23.00;69.60;;;;;;4987158;28;19924;-82
2023/08/24 09:12:44;;;;;;;;;;;23.00;69.80;;;;;;4992468;28;20012;-83
2023/08/24 09:15:10;;;;;;;;;;;23.30;69.60;;;;;;4992715;28;20271;-84
2023/08/24 09:17:35;;;;;;;;;;;23.20;69.50;;;;;;4991422;28;19925;-83
2023/08/24 09:20:07;;;;;;;;;;;23.40;69.00;;;;;;4991479;28;19940;-83
2023/08/24 09:22:36;;;;;;;;;;;23.50;68.30;;;;;;4988764;28;20276;-83
2023/08/24 09:25:03;;;;;;;;;;;23.50;69.90;;;;;;4997306;28;19926;-83
2023/08/24 09:27:29;;;;;;;;;;;23.60;68.10;;;;;;5001744;28;19914;-83
2023/08/24 09:29:54;;;;;;;;;;;23.70;68.50;;;;;;4993077;28;19956;-83
2023/08/24 09:32:23;;;;;;;;;;;23.70;67.60;;;;;;4996829;28;19925;-84
2023/08/24 09:34:50;;;;;;;;;;;23.80;68.00;;;;;;4988118;28;19945;-84
2023/08/24 09:37:15;;;;;;;;;;;23.80;68.60;;;;;;4988618;28;19913;-83
2023/08/24 09:39:41;;;;;;;;;;;24.00;66.10;;;;;;4989560;28;19988;-83
2023/08/24 09:42:06;;;;;;;;;;;24.10;66.00;;;;;;4989970;28;19921;-83
2023/08/24 09:44:32;;;;;;;;;;;24.20;67.10;;;;;;4993791;28;19914;-84
2023/08/24 09:46:59;;;;;;;;;;;24.50;65.10;;;;;;4990084;28;19948;-84
2023/08/24 09:49:26;;;;;;;;;;;24.50;65.50;;;;;;4998047;28;19910;-83
2023/08/24 09:51:55;;;;;;;;;;;24.80;64.00;;;;;;4996879;28;19921;-83
2023/08/24 09:54:21;;;;;;;;;;;25.00;65.60;;;;;;4996497;28;19909;-84
2023/08/24 09:56:48;;;;;;;;;;;24.90;66.30;;;;;;4996712;28;19945;-84
2023/08/24 09:59:13;;;;;;;;;;;24.90;64.80;;;;;;4996443;28;19910;-84
2023/08/24 10:01:49;;;;;;;;;;;24.80;65.70;;;;;;4996281;28;19932;-84
2023/08/24 10:04:16;;;;;;;;;;;24.80;64.70;;;;;;4987933;28;19963;-85
2023/08/24 10:06:42;;;;;;;;;;;24.70;64.90;;;;;;5003374;28;20355;-84
2023/08/24 10:09:11;;;;;;;;;;;24.80;65.00;;;;;;4991988;28;19917;-85
2023/08/24 10:11:40;;;;;;;;;;;25.00;66.10;;;;;;4988489;28;19918;-84
2023/08/24 10:14:23;;;;;;;;;;;25.00;64.10;;;;;;4993263;28;20299;-86
2023/08/24 10:16:50;;;;;;;;;;;25.00;64.50;;;;;;4986649;28;19976;-86
2023/08/24 10:19:16;;;;;;;;;;;25.00;66.00;;;;;;4988564;28;19914;-86
2023/08/24 10:21:42;;;;;;;;;;;25.10;64.40;;;;;;5005183;28;19918;-86
2023/08/24 10:24:09;;;;;;;;;;;25.10;63.70;;;;;;4994996;28;19922;-86
2023/08/24 10:26:35;;;;;;;;;;;25.20;62.80;;;;;;4988887;28;19968;-86
2023/08/24 10:29:02;;;;;;;;;;;25.40;64.40;;;;;;4984264;28;19918;-86
2023/08/24 10:31:28;;;;;;;;;;;25.30;63.60;;;;;;4983893;28;20406;-86
2023/08/24 10:33:54;;;;;;;;;;;25.20;63.70;;;;;;4994570;28;19921;-83
2023/08/24 10:36:20;;;;;;;;;;;25.30;63.30;;;;;;4987065;28;19914;-84
2023/08/24 10:38:46;;;;;;;;;;;25.20;63.20;;;;;;4984756;28;20384;-84
2023/08/24 10:41:13;;;;;;;;;;;25.30;62.50;;;;;;4988151;28;19977;-83
2023/08/24 10:43:39;;;;;;;;;;;25.30;63.00;;;;;;4985382;28;20053;-86
2023/08/24 10:46:11;;;;;;;;;;;25.30;63.90;;;;;;4987065;28;20012;-85
2023/08/24 10:48:40;;;;;;;;;;;25.40;63.00;;;;;;4987637;28;19921;-85
2023/08/24 10:51:21;;;;;;;;;;;25.50;64.70;;;;;;4985343;28;20471;-85
2023/08/24 10:53:50;;;;;;;;;;;25.60;61.80;;;;;;4992835;28;20303;-85
2023/08/24 10:56:16;;;;;;;;;;;25.70;61.10;;;;;;4997908;28;20395;-85
2023/08/24 10:58:44;;;;;;;;;;;25.80;61.80;;;;;;4993625;28;19913;-86
2023/08/24 11:01:21;;;;;;;;;;;25.80;63.30;;;;;;4991779;28;19969;-84
2023/08/24 11:03:51;;;;;;;;;;;25.90;62.80;;;;;;4993793;28;20411;-86
2023/08/24 11:06:24;;;;;;;;;;;26.00;63.40;;;;;;4995333;28;20004;-88
2023/08/24 11:09:06;;;;;;;;;;;26.10;62.80;;;;;;4994294;28;19933;-86
2023/08/24 11:11:32;;;;;;;;;;;26.10;62.80;;;;;;4995772;28;20375;-88
2023/08/24 11:14:13;;;;;;;;;;;26.10;62.30;;;;;;4992810;28;19964;-87
2023/08/24 11:16:38;;;;;;;;;;;26.10;64.20;;;;;;4992947;28;19913;-86
2023/08/24 11:19:06;;;;;;;;;;;26.20;63.10;;;;;;4993261;28;19960;-86
2023/08/24 11:21:32;;;;;;;;;;;26.40;63.30;;;;;;4992149;28;19949;-87
2023/08/24 11:23:58;;;;;;;;;;;26.40;64.20;;;;;;4994424;28;20016;-87
2023/08/24 11:26:25;;;;;;;;;;;26.50;63.40;;;;;;4994950;28;19944;-87
2023/08/24 11:28:53;;;;;;;;;;;26.50;63.60;;;;;;4992106;28;19918;-86
2023/08/24 11:31:18;;;;;;;;;;;26.50;63.50;;;;;;4988455;28;20406;-86
2023/08/24 11:33:44;;;;;;;;;;;26.60;64.60;;;;;;4992790;28;19914;-85
2023/08/24 11:36:09;;;;;;;;;;;26.70;62.90;;;;;;4991402;28;19914;-86
2023/08/24 11:38:39;;;;;;;;;;;26.80;62.40;;;;;;4993198;28;19918;-85
2023/08/24 11:41:14;;;;;;;;;;;26.90;61.00;;;;;;4995155;28;19914;-85
2023/08/24 11:43:39;;;;;;;;;;;27.00;59.90;;;;;;4994683;28;19997;-87
2023/08/24 11:46:05;;;;;;;;;;;27.00;61.00;;;;;;4997365;28;19938;-88
2023/08/24 11:48:36;;;;;;;;;;;27.00;60.60;;;;;;5008555;28;19965;-87
2023/08/24 11:51:02;;;;;;;;;;;27.10;60.20;;;;;;5003286;28;19905;-86
2023/08/24 11:53:29;;;;;;;;;;;27.10;59.90;;;;;;5006161;28;20000;-87
2023/08/24 11:55:54;;;;;;;;;;;27.10;59.60;;;;;;4995557;28;19953;-90
2023/08/24 11:58:22;;;;;;;;;;;27.20;58.30;;;;;;4994100;28;19945;-88
2023/08/24 12:00:48;;;;;;;;;;;27.20;59.20;;;;;;4994902;28;19918;-88
2023/08/24 12:03:14;;;;;;;;;;;27.30;59.00;;;;;;4995387;28;20004;-88
2023/08/24 12:05:39;;;;;;;;;;;27.10;59.50;;;;;;4993265;28;19952;-88
2023/08/24 12:08:05;;;;;;;;;;;27.10;59.90;;;;;;4990628;28;19914;-88
2023/08/24 12:10:32;;;;;;;;;;;27.00;60.60;;;;;;4992382;28;19961;-88
2023/08/24 12:13:01;;;;;;;;;;;26.90;61.70;;;;;;4994519;28;19914;-88
2023/08/24 12:15:52;;;;;;;;;;;27.10;60.80;;;;;;4993883;28;20006;-88
2023/08/24 12:18:19;;;;;;;;;;;27.20;60.20;;;;;;4985478;28;20324;-88
2023/08/24 12:20:44;;;;;;;;;;;27.30;59.00;;;;;;4986795;28;19914;-88
2023/08/24 12:23:10;;;;;;;;;;;27.50;58.70;;;;;;4992392;28;19960;-88
2023/08/24 12:25:42;;;;;;;;;;;27.60;57.30;;;;;;4992334;28;19929;-87
2023/08/24 12:28:10;;;;;;;;;;;27.80;55.90;;;;;;4990909;28;19918;-86
2023/08/24 12:30:46;;;;;;;;;;;27.80;55.40;;;;;;5001516;28;19914;-86
2023/08/24 12:33:24;;;;;;;;;;;27.90;55.10;;;;;;5004407;28;19967;-87
2023/08/24 12:35:51;;;;;;;;;;;27.80;56.60;;;;;;4991709;28;19914;-88
2023/08/24 12:38:16;;;;;;;;;;;27.60;58.30;;;;;;4991155;28;19913;-88
2023/08/24 12:40:42;;;;;;;;;;;27.60;58.30;;;;;;4996184;28;19920;-88
2023/08/24 12:43:07;;;;;;;;;;;27.60;59.10;;;;;;4995157;28;19909;-87
2023/08/24 12:45:33;;;;;;;;;;;27.50;58.60;;;;;;4989671;28;20012;-87
2023/08/24 12:47:58;;;;;;;;;;;27.60;58.00;;;;;;4987634;28;19921;-88
2023/08/24 12:50:23;;;;;;;;;;;27.60;57.20;;;;;;4992890;28;20583;-87
2023/08/24 12:52:50;;;;;;;;;;;27.80;57.60;;;;;;4994314;28;20295;-88
2023/08/24 12:55:16;;;;;;;;;;;27.90;56.70;;;;;;4993230;28;20427;-87
2023/08/24 12:57:41;;;;;;;;;;;27.80;56.40;;;;;;4991372;28;19914;-88
2023/08/24 13:00:08;;;;;;;;;;;27.70;58.10;;;;;;4991717;28;20409;-88
2023/08/24 13:02:33;;;;;;;;;;;27.60;58.60;;;;;;4995175;28;19937;-88
2023/08/24 13:05:01;;;;;;;;;;;27.50;59.60;;;;;;4993349;28;20383;-87
2023/08/24 13:07:26;;;;;;;;;;;27.30;59.30;;;;;;4992672;28;20390;-86
2023/08/24 13:09:52;;;;;;;;;;;27.10;58.50;;;;;;4992545;28;20024;-86
2023/08/24 13:12:17;;;;;;;;;;;27.00;60.20;;;;;;4992320;28;19914;-86
2023/08/24 13:14:42;;;;;;;;;;;27.00;63.10;;;;;;5003627;28;19976;-87
2023/08/24 13:17:08;;;;;;;;;;;26.70;64.20;;;;;;5003235;28;19914;-87
2023/08/24 13:19:33;;;;;;;;;;;26.50;64.30;;;;;;5001764;28;20371;-87
2023/08/24 13:21:59;;;;;;;;;;;26.30;65.80;;;;;;4992651;28;19926;-87
2023/08/24 13:24:24;;;;;;;;;;;26.20;65.30;;;;;;4992887;28;19961;-81
2023/08/24 13:26:50;;;;;;;;;;;26.20;65.50;;;;;;4989675;28;19914;-86
2023/08/24 13:29:15;;;;;;;;;;;26.00;65.90;;;;;;4994320;28;19980;-88
2023/08/24 13:31:40;;;;;;;;;;;25.90;65.20;;;;;;4990982;28;19929;-86
2023/08/24 13:34:07;;;;;;;;;;;25.80;65.60;;;;;;4992250;28;20394;-85
2023/08/24 13:36:33;;;;;;;;;;;25.70;66.20;;;;;;5006511;28;19974;-86
2023/08/24 13:38:58;;;;;;;;;;;25.80;64.60;;;;;;4992540;28;20482;-87
2023/08/24 13:41:24;;;;;;;;;;;25.90;64.40;;;;;;4993496;28;19910;-87
2023/08/24 13:43:49;;;;;;;;;;;26.00;64.00;;;;;;4991460;28;19914;-86
2023/08/24 13:46:15;;;;;;;;;;;26.10;63.80;;;;;;4992367;28;19914;-86
2023/08/24 13:48:40;;;;;;;;;;;26.30;63.80;;;;;;4992370;28;19925;-85
2023/08/24 13:51:06;;;;;;;;;;;26.50;61.60;;;;;;4993444;28;20339;-86
2023/08/24 13:53:31;;;;;;;;;;;26.70;61.20;;;;;;5002165;28;20359;-86
2023/08/24 13:55:57;;;;;;;;;;;26.90;60.90;;;;;;4993053;28;19949;-86
2023/08/24 13:58:22;;;;;;;;;;;27.00;61.40;;;;;;4994203;28;19914;-87
2023/08/24 14:00:47;;;;;;;;;;;27.10;60.30;;;;;;4991201;28;19922;-87
2023/08/24 14:03:13;;;;;;;;;;;27.10;60.70;;;;;;4987084;28;19921;-87
2023/08/24 14:05:39;;;;;;;;;;;27.10;60.50;;;;;;4997860;28;20463;-83
2023/08/24 14:08:05;;;;;;;;;;;27.10;60.00;;;;;;4997371;28;19960;-84
2023/08/24 14:10:31;;;;;;;;;;;27.10;59.90;;;;;;4992857;28;19910;-87
2023/08/24 14:12:56;;;;;;;;;;;27.00;60.00;;;;;;4993865;28;19929;-84
2023/08/24 14:15:22;;;;;;;;;;;27.00;60.70;;;;;;4990856;28;19922;-84